< < Back
Terminal Aerodrome Forecast


Current Version              Previous Versions:   1  2  3  4  5  6  7  8  9  

Terminal Aerodrome Forecast

692
FTUS42 KJAX 200500
TAFSSI
TAF
KSSI 200539Z 2006/2106 36010G20KT P6SM BKN010 OVC020
      TEMPO 2006/2010 4SM -DZ OVC008
     FM201000 36014G25KT P6SM SCT010 BKN015 OVC025
      TEMPO 2010/2014 4SM -DZ OVC008
     FM201600 36017G28KT P6SM SCT010 BKN015
     FM210000 02011KT P6SM SCT015 BKN025=

Latest METAR

013
SAUS70 KWBC 201300 RRL
MTRSSI
METAR KSSI 201253Z AUTO 33008KT 2 1/2SM -RA BR OVC005 12/12 A3009 RMK
AO2 CIG 005V010 SLP188 P0000 T01220117


USA.gov is the U.S. government's official web portal to all federal, state and local government web resources and services.